Time;durP1;ratioP1;P1;durP2;ratioP2;P2;SDS_P1;SDS_P2;PMS_P1;PMS_P2;Temp;Humidity;BMP_temperature;BMP_pressure;BME280_temperature;BME280_humidity;BME280_pressure;Samples;Min_cycle;Max_cycle;Signal;HPM_P1;HPM_P2
2023/09/16 00:00:17;;;;;;;8.23;1.90;;;13.40;99.90;;;;;;5018885;28;20445;-82
2023/09/16 00:02:48;;;;;;;2.15;2.05;;;13.40;99.90;;;;;;5034167;28;20468;-80
2023/09/16 00:05:17;;;;;;;2.80;1.75;;;13.30;99.90;;;;;;5034710;28;20276;-86
2023/09/16 00:07:45;;;;;;;2.33;2.13;;;13.20;99.90;;;;;;5021925;28;20244;-83
2023/09/16 00:10:12;;;;;;;1.77;1.67;;;13.30;99.90;;;;;;5034043;28;20462;-80
2023/09/16 00:12:39;;;;;;;2.70;2.50;;;13.10;99.90;;;;;;5022524;28;20456;-80
2023/09/16 00:15:09;;;;;;;1.58;1.45;;;13.30;99.90;;;;;;5028220;28;20441;-85
2023/09/16 00:17:38;;;;;;;1.53;1.43;;;13.20;99.90;;;;;;5023596;28;20440;-79
2023/09/16 00:20:15;;;;;;;1.52;1.42;;;13.10;99.90;;;;;;5041242;28;20439;-81
2023/09/16 00:22:43;;;;;;;13.73;2.13;;;13.10;99.90;;;;;;5015399;28;20242;-86
2023/09/16 00:25:10;;;;;;;3.13;2.05;;;13.00;99.90;;;;;;5025406;28;20423;-78
2023/09/16 00:27:39;;;;;;;1.30;1.30;;;13.00;99.90;;;;;;5024917;28;20318;-80
2023/09/16 00:30:10;;;;;;;4.45;1.95;;;13.00;99.90;;;;;;5014717;28;20231;-81
2023/09/16 00:32:37;;;;;;;2.22;1.90;;;13.10;99.90;;;;;;5032367;28;20226;-81
2023/09/16 00:35:08;;;;;;;11.50;2.53;;;13.00;99.90;;;;;;5043689;28;20203;-83
2023/09/16 00:37:39;;;;;;;1.40;1.30;;;12.90;99.90;;;;;;5036065;28;20367;-85
2023/09/16 00:40:07;;;;;;;1.88;1.45;;;12.90;99.90;;;;;;5033878;28;20210;-83
2023/09/16 00:42:38;;;;;;;5.95;2.03;;;12.90;99.90;;;;;;5038243;28;20209;-83
2023/09/16 00:45:07;;;;;;;2.53;2.25;;;12.90;99.90;;;;;;5017455;28;20279;-76
2023/09/16 00:47:34;;;;;;;3.13;1.75;;;12.90;99.90;;;;;;5037437;28;20231;-83
2023/09/16 00:50:05;;;;;;;1.50;1.40;;;12.90;99.90;;;;;;5025726;28;20434;-84
2023/09/16 00:52:37;;;;;;;2.38;2.17;;;12.90;99.90;;;;;;5032405;28;20263;-82
2023/09/16 00:55:05;;;;;;;1.42;1.33;;;12.80;99.90;;;;;;5026670;28;20211;-86
2023/09/16 00:57:34;;;;;;;1.27;1.20;;;12.70;99.90;;;;;;5028994;28;20220;-76
2023/09/16 01:00:08;;;;;;;0.80;0.80;;;12.80;99.90;;;;;;5019173;28;20275;-79
2023/09/16 01:02:36;;;;;;;1.88;1.77;;;12.70;99.90;;;;;;5023764;28;20256;-81
2023/09/16 01:05:08;;;;;;;1.25;1.15;;;12.70;99.90;;;;;;5027734;28;20246;-83
2023/09/16 01:07:37;;;;;;;0.70;0.70;;;12.60;99.90;;;;;;5030492;28;20478;-82
2023/09/16 01:10:04;;;;;;;0.70;0.60;;;12.70;99.90;;;;;;5013693;28;20256;-86
2023/09/16 01:12:31;;;;;;;1.02;1.02;;;12.60;99.90;;;;;;5032267;28;20248;-82
2023/09/16 01:14:58;;;;;;;0.70;0.70;;;12.60;99.90;;;;;;5032216;28;20246;-85
2023/09/16 01:17:33;;;;;;;0.77;0.77;;;12.60;99.90;;;;;;5024990;28;20278;-86
2023/09/16 01:20:13;;;;;;;1.00;1.00;;;12.60;99.90;;;;;;5030865;28;20226;-86
2023/09/16 01:22:46;;;;;;;1.50;1.40;;;12.60;99.90;;;;;;5006823;28;20270;-88
2023/09/16 01:25:17;;;;;;;0.50;0.50;;;12.60;99.90;;;;;;5013765;28;20247;-86
2023/09/16 01:27:45;;;;;;;0.65;0.65;;;12.50;99.90;;;;;;5027581;28;20227;-80
2023/09/16 01:30:13;;;;;;;0.90;0.90;;;12.50;99.90;;;;;;5032099;28;20212;-83
2023/09/16 01:32:59;;;;;;;1.85;1.52;;;12.60;99.90;;;;;;5028082;28;20278;-84
2023/09/16 01:35:32;;;;;;;0.50;0.50;;;12.50;99.90;;;;;;5031750;28;20230;-78
2023/09/16 01:37:59;;;;;;;1.08;1.08;;;12.50;99.90;;;;;;5023690;28;20384;-84
2023/09/16 01:40:27;;;;;;;3.22;2.97;;;12.50;99.90;;;;;;5030825;28;20209;-85
2023/09/16 01:42:56;;;;;;;1.85;1.75;;;12.50;99.90;;;;;;5030293;28;20222;-80
2023/09/16 01:45:23;;;;;;;0.95;0.95;;;12.50;99.90;;;;;;5031109;28;20227;-82
2023/09/16 01:47:53;;;;;;;0.40;0.40;;;12.40;99.90;;;;;;5023329;28;20357;-84
2023/09/16 01:50:21;;;;;;;0.95;0.95;;;12.50;99.90;;;;;;5023327;28;20211;-78
2023/09/16 01:52:48;;;;;;;1.45;1.35;;;12.40;99.90;;;;;;5019154;28;20226;-86
2023/09/16 01:55:15;;;;;;;1.50;0.90;;;12.50;99.90;;;;;;5024243;28;20234;-88
2023/09/16 01:57:42;;;;;;;1.00;1.00;;;12.50;99.90;;;;;;5023318;28;20217;-85
2023/09/16 02:00:10;;;;;;;1.88;1.48;;;12.60;99.90;;;;;;5019534;28;20290;-81
2023/09/16 02:02:37;;;;;;;0.40;0.40;;;12.50;99.90;;;;;;5018581;28;20198;-84
2023/09/16 02:05:04;;;;;;;0.88;0.88;;;12.50;99.90;;;;;;5035564;28;20493;-81
2023/09/16 02:07:31;;;;;;;2.08;1.98;;;12.50;99.90;;;;;;5014800;28;20225;-79
2023/09/16 02:09:58;;;;;;;1.00;1.00;;;12.40;99.90;;;;;;5034208;28;20242;-78
2023/09/16 02:12:25;;;;;;;1.40;1.30;;;12.30;99.90;;;;;;5037492;28;20210;-84
2023/09/16 02:14:53;;;;;;;0.50;0.50;;;12.30;99.90;;;;;;5027990;28;20199;-79
2023/09/16 02:17:20;;;;;;;0.80;0.80;;;12.30;99.90;;;;;;5032554;28;20195;-78
2023/09/16 02:19:51;;;;;;;3.28;1.45;;;12.30;99.90;;;;;;5032003;28;20488;-80
2023/09/16 02:22:20;;;;;;;0.93;0.80;;;12.20;99.90;;;;;;5036246;28;20278;-86
2023/09/16 02:24:54;;;;;;;0.95;0.95;;;12.30;99.90;;;;;;5018068;28;20215;-83
2023/09/16 02:27:22;;;;;;;0.52;0.52;;;12.40;99.90;;;;;;5029673;28;20241;-83
2023/09/16 02:29:49;;;;;;;1.45;1.35;;;12.30;99.90;;;;;;5032853;28;20269;-79
2023/09/16 02:32:16;;;;;;;0.90;0.90;;;12.20;99.90;;;;;;5033692;28;20425;-80
2023/09/16 02:34:43;;;;;;;0.65;0.65;;;12.20;99.90;;;;;;5027579;28;20241;-81
2023/09/16 02:37:12;;;;;;;0.57;0.57;;;12.20;99.90;;;;;;5027797;28;20270;-80
2023/09/16 02:39:39;;;;;;;0.70;0.70;;;12.10;99.90;;;;;;5036176;28;20198;-82
2023/09/16 02:42:06;;;;;;;0.65;0.65;;;12.10;99.90;;;;;;5034574;28;20214;-88
2023/09/16 02:44:33;;;;;;;3.20;2.90;;;12.20;99.90;;;;;;5030853;28;20294;-84
2023/09/16 02:47:13;;;;;;;1.02;1.02;;;12.10;99.90;;;;;;5037053;28;20337;-79
2023/09/16 02:49:41;;;;;;;0.65;0.65;;;12.00;99.90;;;;;;5020661;28;20206;-78
2023/09/16 02:52:08;;;;;;;0.85;0.85;;;12.10;99.90;;;;;;5034012;28;20514;-80
2023/09/16 02:54:35;;;;;;;0.70;0.70;;;12.00;99.90;;;;;;5014831;28;20225;-78
2023/09/16 02:57:02;;;;;;;1.58;1.58;;;11.90;99.90;;;;;;5031075;28;20217;-77
2023/09/16 02:59:29;;;;;;;1.25;1.25;;;11.90;99.90;;;;;;5020050;28;20211;-86
2023/09/16 03:01:56;;;;;;;0.70;0.70;;;11.90;99.90;;;;;;5027665;28;20264;-85
2023/09/16 03:04:23;;;;;;;0.50;0.50;;;11.90;99.90;;;;;;5023518;28;20283;-82
2023/09/16 03:06:51;;;;;;;2.60;2.50;;;11.90;99.90;;;;;;5033000;28;20230;-82
2023/09/16 03:09:19;;;;;;;0.40;0.40;;;11.90;99.90;;;;;;5025796;28;20519;-82
2023/09/16 03:11:46;;;;;;;0.50;0.50;;;11.90;99.90;;;;;;5024408;28;20206;-77
2023/09/16 03:14:14;;;;;;;1.25;1.15;;;11.90;99.90;;;;;;5019199;28;20213;-83
2023/09/16 03:16:42;;;;;;;0.55;0.55;;;11.90;99.90;;;;;;5024706;28;20218;-77
2023/09/16 03:19:10;;;;;;;0.50;0.50;;;11.90;99.90;;;;;;5025070;28;20202;-85
2023/09/16 03:21:37;;;;;;;0.60;0.60;;;11.90;99.90;;;;;;5015751;28;20222;-86
2023/09/16 03:24:05;;;;;;;0.60;0.60;;;11.90;99.90;;;;;;5028731;28;20427;-84
2023/09/16 03:26:32;;;;;;;1.40;0.88;;;11.80;99.90;;;;;;5035967;28;20205;-83
2023/09/16 03:29:00;;;;;;;1.90;1.80;;;12.00;99.90;;;;;;5024327;28;20234;-85
2023/09/16 03:31:27;;;;;;;2.15;2.05;;;11.80;99.90;;;;;;5038747;28;20288;-84
2023/09/16 03:33:54;;;;;;;0.70;0.70;;;11.80;99.90;;;;;;5021379;28;20425;-84
2023/09/16 03:36:22;;;;;;;0.50;0.50;;;11.80;99.90;;;;;;5025559;28;20195;-78
2023/09/16 03:38:50;;;;;;;0.50;0.50;;;11.80;99.90;;;;;;5040547;28;20210;-80
2023/09/16 03:41:18;;;;;;;0.50;0.50;;;11.80;99.90;;;;;;5029049;28;20495;-87
2023/09/16 03:43:45;;;;;;;0.70;0.70;;;11.70;99.90;;;;;;5029499;28;20208;-81
2023/09/16 03:46:16;;;;;;;0.50;0.50;;;11.80;99.90;;;;;;5028887;28;20231;-78
2023/09/16 03:48:45;;;;;;;0.90;0.88;;;11.80;99.90;;;;;;5030347;28;20410;-79
2023/09/16 03:51:12;;;;;;;0.93;0.80;;;11.80;99.90;;;;;;5033166;28;20206;-80
2023/09/16 03:53:40;;;;;;;0.88;0.88;;;11.70;99.90;;;;;;5013775;28;20444;-83
2023/09/16 03:56:10;;;;;;;0.63;0.63;;;11.70;99.90;;;;;;5030205;28;20214;-87
2023/09/16 03:58:37;;;;;;;1.15;1.15;;;11.70;99.90;;;;;;5040315;22;20226;-80
2023/09/16 04:01:04;;;;;;;0.75;0.75;;;11.90;99.90;;;;;;5035600;28;20226;-83
2023/09/16 04:03:31;;;;;;;0.50;0.50;;;11.70;99.90;;;;;;5024943;28;20519;-81
2023/09/16 04:05:59;;;;;;;0.73;0.73;;;11.80;99.90;;;;;;5033155;28;20210;-81
2023/09/16 04:08:26;;;;;;;2.15;2.05;;;11.60;99.90;;;;;;5029440;28;20222;-85
2023/09/16 04:11:07;;;;;;;1.98;1.85;;;11.60;99.90;;;;;;5025648;28;20199;-83
2023/09/16 04:13:37;;;;;;;0.73;0.73;;;11.70;99.90;;;;;;5027343;28;21168;-79
2023/09/16 04:16:04;;;;;;;0.50;0.50;;;11.70;99.90;;;;;;5035597;28;20202;-82
2023/09/16 04:18:31;;;;;;;0.50;0.50;;;11.60;99.90;;;;;;5033201;28;20206;-82
2023/09/16 04:21:02;;;;;;;0.40;0.40;;;11.60;99.90;;;;;;5021235;28;20383;-83
2023/09/16 04:23:30;;;;;;;1.60;1.50;;;11.60;99.90;;;;;;5031482;28;20510;-79
2023/09/16 04:26:00;;;;;;;2.45;2.30;;;11.50;99.90;;;;;;5027908;28;20205;-84
2023/09/16 04:28:28;;;;;;;1.50;0.75;;;11.50;99.90;;;;;;5017715;28;20301;-84
2023/09/16 04:30:56;;;;;;;1.67;1.58;;;11.50;99.90;;;;;;5025843;28;20203;-86
2023/09/16 04:33:25;;;;;;;1.35;1.25;;;11.60;99.90;;;;;;5024344;28;20519;-79
2023/09/16 04:35:52;;;;;;;2.75;2.10;;;11.50;99.90;;;;;;5028460;28;20258;-77
2023/09/16 04:38:20;;;;;;;0.93;0.93;;;11.40;99.90;;;;;;5025623;28;20412;-82
2023/09/16 04:40:47;;;;;;;0.88;0.88;;;11.40;99.90;;;;;;5031644;28;20286;-83
2023/09/16 04:43:15;;;;;;;0.40;0.40;;;11.50;99.90;;;;;;5013899;28;20264;-83
2023/09/16 04:45:48;;;;;;;1.75;1.65;;;11.40;99.90;;;;;;5023298;28;20269;-78
2023/09/16 04:48:22;;;;;;;0.52;0.52;;;11.50;99.90;;;;;;5025121;28;20222;-82
2023/09/16 04:50:49;;;;;;;0.68;0.68;;;11.50;99.90;;;;;;5024986;28;20207;-77
2023/09/16 04:53:16;;;;;;;0.40;0.40;;;11.40;99.90;;;;;;5021796;28;20244;-81
2023/09/16 04:55:44;;;;;;;1.50;1.40;;;11.50;99.90;;;;;;5030217;28;20245;-77
2023/09/16 04:58:10;;;;;;;1.10;1.02;;;11.50;99.90;;;;;;5022391;28;20314;-84
2023/09/16 05:00:38;;;;;;;0.95;0.95;;;11.60;99.90;;;;;;5027696;28;20210;-82
2023/09/16 05:03:06;;;;;;;0.50;0.50;;;11.60;99.90;;;;;;5019174;28;20229;-83
2023/09/16 05:05:38;;;;;;;0.65;0.65;;;11.70;99.90;;;;;;5034667;28;20198;-78
2023/09/16 05:08:05;;;;;;;0.85;0.85;;;11.90;99.90;;;;;;5030113;28;20195;-84
2023/09/16 05:10:33;;;;;;;1.45;1.35;;;11.80;99.90;;;;;;5038166;28;20222;-86
2023/09/16 05:13:02;;;;;;;1.60;1.50;;;12.00;99.90;;;;;;5028993;28;20234;-81
2023/09/16 05:15:29;;;;;;;3.42;2.45;;;12.10;99.90;;;;;;5024555;28;20203;-80
2023/09/16 05:17:57;;;;;;;1.40;1.30;;;12.20;99.90;;;;;;5029105;28;20547;-86
2023/09/16 05:20:24;;;;;;;2.13;2.03;;;12.30;99.90;;;;;;5023241;28;20547;-85
2023/09/16 05:22:51;;;;;;;0.50;0.50;;;12.30;99.90;;;;;;5022329;28;20273;-78
2023/09/16 05:25:20;;;;;;;1.70;1.10;;;12.50;99.90;;;;;;5013888;28;20225;-80
2023/09/16 05:27:47;;;;;;;0.77;0.77;;;12.70;99.90;;;;;;5021934;28;20212;-81
2023/09/16 05:30:15;;;;;;;1.45;1.35;;;12.70;99.90;;;;;;5028696;28;20239;-82
2023/09/16 05:32:42;;;;;;;0.70;0.70;;;12.80;99.90;;;;;;5020056;28;20251;-78
2023/09/16 05:35:12;;;;;;;1.40;1.30;;;12.90;99.90;;;;;;5018065;28;20287;-85
2023/09/16 05:37:41;;;;;;;0.50;0.50;;;12.90;99.90;;;;;;5014264;28;20509;-81
2023/09/16 05:40:09;;;;;;;0.95;0.95;;;13.10;99.90;;;;;;5017865;28;20526;-83
2023/09/16 05:42:38;;;;;;;0.77;0.77;;;13.30;99.90;;;;;;5020855;28;20825;-84
2023/09/16 05:45:08;;;;;;;1.38;1.27;;;13.30;99.90;;;;;;5029678;28;20451;-85
2023/09/16 05:47:36;;;;;;;0.60;0.60;;;13.50;99.90;;;;;;5029051;28;20281;-83
2023/09/16 05:50:03;;;;;;;0.90;0.90;;;13.70;99.90;;;;;;5023263;28;20473;-81
2023/09/16 05:52:31;;;;;;;0.97;0.97;;;13.80;99.90;;;;;;5022460;28;20497;-84
2023/09/16 05:54:57;;;;;;;0.60;0.60;;;14.00;99.90;;;;;;5016062;28;20502;-80
2023/09/16 05:57:25;;;;;;;1.37;1.07;;;14.10;99.90;;;;;;5009802;28;20454;-80
2023/09/16 05:59:52;;;;;;;0.60;0.60;;;14.20;99.90;;;;;;5018967;28;20472;-78
2023/09/16 06:02:20;;;;;;;1.43;1.40;;;14.10;99.90;;;;;;5026024;28;20827;-82
2023/09/16 06:04:49;;;;;;;0.90;0.90;;;14.10;99.90;;;;;;5018227;28;20449;-84
2023/09/16 06:07:16;;;;;;;1.00;1.00;;;14.20;99.90;;;;;;5027108;28;20453;-84
2023/09/16 06:09:44;;;;;;;2.17;1.93;;;14.50;99.90;;;;;;5022568;28;20745;-77
2023/09/16 06:12:11;;;;;;;0.60;0.60;;;14.40;99.90;;;;;;5024320;28;20446;-84
2023/09/16 06:14:39;;;;;;;0.50;0.50;;;14.50;99.90;;;;;;5020175;28;20457;-81
2023/09/16 06:17:06;;;;;;;0.60;0.60;;;14.70;99.90;;;;;;5018530;28;20438;-77
2023/09/16 06:19:45;;;;;;;0.60;0.60;;;14.90;99.90;;;;;;5020003;28;20442;-78
2023/09/16 06:22:13;;;;;;;2.10;1.90;;;15.00;99.90;;;;;;5018950;28;20480;-81
2023/09/16 06:24:42;;;;;;;0.60;0.60;;;15.20;99.90;;;;;;5019712;28;20442;-79
2023/09/16 06:27:11;;;;;;;0.50;0.50;;;15.50;99.90;;;;;;5026802;28;20533;-80
2023/09/16 06:29:38;;;;;;;1.20;1.20;;;15.80;99.90;;;;;;5026082;28;20517;-82
2023/09/16 06:32:05;;;;;;;0.70;0.70;;;15.80;99.90;;;;;;5017274;28;20450;-84
2023/09/16 06:34:32;;;;;;;0.70;0.70;;;16.00;99.90;;;;;;5016938;28;20489;-79
2023/09/16 06:36:59;;;;;;;0.77;0.77;;;16.50;99.90;;;;;;5028198;28;20505;-85
2023/09/16 06:39:27;;;;;;;0.70;0.70;;;16.90;99.90;;;;;;5016769;28;20447;-84
2023/09/16 06:41:53;;;;;;;0.63;0.63;;;17.10;99.90;;;;;;5028566;28;20442;-82
2023/09/16 06:44:20;;;;;;;0.70;0.70;;;17.70;99.90;;;;;;5015866;28;20475;-79
2023/09/16 06:46:47;;;;;;;0.63;0.63;;;17.60;99.90;;;;;;5023326;28;20481;-80
2023/09/16 06:49:35;;;;;;;0.60;0.60;;;18.00;99.90;;;;;;5026623;28;20500;-83
2023/09/16 06:52:03;;;;;;;0.80;0.80;;;18.10;99.90;;;;;;5015804;28;20490;-82
2023/09/16 06:54:30;;;;;;;0.90;0.90;;;18.70;99.90;;;;;;5028648;28;20453;-84
2023/09/16 06:57:00;;;;;;;0.90;0.90;;;19.60;99.90;;;;;;5020533;28;20428;-87
2023/09/16 06:59:30;;;;;;;1.80;1.70;;;20.40;99.90;;;;;;5027217;28;20455;-82
2023/09/16 07:01:57;;;;;;;0.70;0.70;;;20.50;99.90;;;;;;5022705;28;20748;-86
2023/09/16 07:04:26;;;;;;;2.93;2.70;;;20.70;99.90;;;;;;5029377;28;20428;-78
2023/09/16 07:06:52;;;;;;;7.13;2.13;;;21.40;99.90;;;;;;5022892;28;20421;-80
2023/09/16 07:09:21;;;;;;;1.77;1.67;;;21.50;99.90;;;;;;5022809;28;20506;-83
2023/09/16 07:11:48;;;;;;;0.80;0.80;;;22.00;99.90;;;;;;5028746;28;20422;-80
2023/09/16 07:14:14;;;;;;;1.20;1.20;;;22.70;99.90;;;;;;5025005;28;20447;-84
2023/09/16 07:16:41;;;;;;;0.80;0.80;;;23.10;99.90;;;;;;5027143;28;20429;-86
2023/09/16 07:19:08;;;;;;;1.43;1.33;;;23.10;99.90;;;;;;5024274;28;20452;-78
2023/09/16 07:21:35;;;;;;;1.17;1.10;;;23.20;99.90;;;;;;5026700;28;21115;-87
2023/09/16 07:24:04;;;;;;;1.93;1.83;;;23.10;99.70;;;;;;5030552;28;20420;-87
2023/09/16 07:26:33;;;;;;;1.47;1.37;;;22.30;99.90;;;;;;5025290;28;20427;-80
2023/09/16 07:29:01;;;;;;;3.70;3.27;;;22.20;99.90;;;;;;5026216;28;20529;-85
2023/09/16 07:31:30;;;;;;;2.13;1.93;;;22.60;99.90;;;;;;5017690;28;20421;-82
2023/09/16 07:33:58;;;;;;;1.37;0.87;;;22.60;99.90;;;;;;5033831;28;20510;-84
2023/09/16 07:36:25;;;;;;;1.83;1.73;;;22.80;99.90;;;;;;5020964;28;20468;-83
2023/09/16 07:38:52;;;;;;;0.70;0.70;;;23.30;99.10;;;;;;5027517;28;20461;-83
2023/09/16 07:41:20;;;;;;;1.27;1.27;;;23.50;98.40;;;;;;5016027;28;20942;-80
2023/09/16 07:43:47;;;;;;;0.80;0.80;;;23.30;99.00;;;;;;5023946;28;20748;-79
2023/09/16 07:46:16;;;;;;;1.00;1.00;;;23.30;99.10;;;;;;5022538;28;20706;-81
2023/09/16 07:48:52;;;;;;;3.53;1.10;;;23.20;99.70;;;;;;5025948;28;20451;-81
2023/09/16 07:51:21;;;;;;;4.10;2.27;;;23.90;98.00;;;;;;5012569;28;20468;-85
2023/09/16 07:53:48;;;;;;;2.20;1.60;;;23.40;98.50;;;;;;5021657;28;20437;-87
2023/09/16 07:56:18;;;;;;;0.73;0.73;;;23.60;98.10;;;;;;5017627;28;20426;-87
2023/09/16 07:58:45;;;;;;;1.17;1.07;;;24.00;97.50;;;;;;5029293;28;20451;-81
2023/09/16 08:01:12;;;;;;;0.80;0.80;;;24.40;96.70;;;;;;5025508;28;20667;-85
2023/09/16 08:03:42;;;;;;;3.07;2.57;;;23.90;96.00;;;;;;5023722;28;20419;-82
2023/09/16 08:06:09;;;;;;;1.17;1.10;;;23.90;96.70;;;;;;5030348;28;20414;-82
2023/09/16 08:08:36;;;;;;;1.00;1.00;;;23.90;96.40;;;;;;5017275;28;20448;-84
2023/09/16 08:11:03;;;;;;;1.40;1.30;;;23.80;96.40;;;;;;5034120;28;20409;-86
2023/09/16 08:13:30;;;;;;;0.70;0.70;;;24.60;95.30;;;;;;5032095;28;20429;-81
2023/09/16 08:15:57;;;;;;;0.90;0.90;;;25.10;95.40;;;;;;5026262;28;20443;-85
2023/09/16 08:18:25;;;;;;;1.23;1.23;;;24.70;94.90;;;;;;5028559;28;20424;-83
2023/09/16 08:20:52;;;;;;;1.20;1.20;;;24.30;95.10;;;;;;5032316;28;20450;-81
2023/09/16 08:23:19;;;;;;;2.33;1.30;;;24.60;95.30;;;;;;5017292;28;20472;-80
2023/09/16 08:25:46;;;;;;;2.97;1.03;;;24.50;95.40;;;;;;5025253;28;20414;-83
2023/09/16 08:28:13;;;;;;;0.70;0.70;;;24.50;95.20;;;;;;5032418;28;20454;-88
2023/09/16 08:30:41;;;;;;;0.73;0.73;;;24.40;95.10;;;;;;5029094;28;20466;-84
2023/09/16 08:33:09;;;;;;;1.00;1.00;;;24.60;95.60;;;;;;5024434;28;20457;-82
2023/09/16 08:35:35;;;;;;;1.30;1.20;;;24.90;94.40;;;;;;5020081;28;21231;-80
2023/09/16 08:38:03;;;;;;;1.00;1.00;;;25.40;94.30;;;;;;5033591;28;20431;-86
2023/09/16 08:40:34;;;;;;;4.23;3.93;;;25.10;94.20;;;;;;5023136;28;20421;-86
2023/09/16 08:43:21;;;;;;;1.77;1.67;;;25.80;93.30;;;;;;5024468;28;20509;-84
2023/09/16 08:46:00;;;;;;;2.00;1.90;;;25.20;92.80;;;;;;5018040;28;20402;-84
2023/09/16 08:48:33;;;;;;;0.97;0.97;;;26.20;92.50;;;;;;5016073;28;20489;-82
2023/09/16 08:51:05;;;;;;;1.30;1.23;;;26.10;91.70;;;;;;5032249;28;20471;-81
2023/09/16 08:53:36;;;;;;;1.00;1.00;;;26.50;91.40;;;;;;5033656;28;20431;-80
2023/09/16 08:56:10;;;;;;;0.97;0.97;;;24.80;92.50;;;;;;5035049;28;20447;-87
2023/09/16 08:58:41;;;;;;;0.80;0.80;;;24.50;94.50;;;;;;5038584;28;20491;-79
2023/09/16 09:01:11;;;;;;;0.70;0.70;;;24.20;95.00;;;;;;5020580;28;20434;-81
2023/09/16 09:03:38;;;;;;;1.00;1.00;;;24.30;94.50;;;;;;5018113;28;20446;-78
2023/09/16 09:06:07;;;;;;;1.00;1.00;;;24.40;95.30;;;;;;5022735;28;20742;-87
2023/09/16 09:08:34;;;;;;;0.87;0.87;;;24.30;94.70;;;;;;5027595;28;20443;-84
2023/09/16 09:11:01;;;;;;;1.93;1.00;;;24.90;94.10;;;;;;5028840;28;20470;-83
2023/09/16 09:13:29;;;;;;;0.97;0.97;;;24.60;94.00;;;;;;5017070;28;20450;-82
2023/09/16 09:16:00;;;;;;;6.13;1.43;;;24.40;94.60;;;;;;5022683;28;20452;-83
2023/09/16 09:18:29;;;;;;;0.77;0.77;;;24.60;94.70;;;;;;5031380;28;20445;-84
2023/09/16 09:20:57;;;;;;;2.13;2.03;;;25.20;94.10;;;;;;5023822;28;20430;-86
2023/09/16 09:23:26;;;;;;;1.43;1.33;;;24.80;93.70;;;;;;5021806;28;20775;-88
2023/09/16 09:25:53;;;;;;;2.17;1.97;;;24.20;95.20;;;;;;5026271;28;20439;-79
2023/09/16 09:28:21;;;;;;;0.70;0.70;;;24.00;95.40;;;;;;5018670;28;20526;-81
2023/09/16 09:30:52;;;;;;;1.93;1.77;;;23.10;96.60;;;;;;5002383;28;20492;-84
2023/09/16 09:33:21;;;;;;;0.80;0.80;;;23.40;96.60;;;;;;5023771;28;20434;-82
2023/09/16 09:36:07;;;;;;;0.90;0.90;;;23.40;96.90;;;;;;5036078;28;20409;-80
2023/09/16 09:38:40;;;;;;;1.80;1.00;;;23.00;97.20;;;;;;5033262;28;20459;-84
2023/09/16 09:41:07;;;;;;;0.93;0.93;;;23.00;98.40;;;;;;5043331;28;20448;-86
2023/09/16 09:43:34;;;;;;;1.20;1.17;;;22.70;98.60;;;;;;5031309;28;20459;-84
2023/09/16 09:46:02;;;;;;;0.90;0.90;;;22.60;98.30;;;;;;5030305;28;20436;-84
2023/09/16 09:48:31;;;;;;;0.60;0.60;;;22.70;98.60;;;;;;5042264;28;20810;-83
2023/09/16 09:51:01;;;;;;;0.90;0.90;;;22.60;99.00;;;;;;5032165;28;20850;-83
2023/09/16 09:53:30;;;;;;;1.50;1.40;;;22.80;99.00;;;;;;5038577;28;20502;-81
2023/09/16 09:55:59;;;;;;;0.60;0.60;;;22.90;99.10;;;;;;5032711;28;20637;-80
2023/09/16 09:58:26;;;;;;;0.70;0.70;;;22.90;99.30;;;;;;5026405;28;20434;-84
2023/09/16 10:00:56;;;;;;;1.87;1.77;;;22.60;99.70;;;;;;5025987;28;20445;-87
2023/09/16 10:03:23;;;;;;;1.50;1.40;;;22.40;99.80;;;;;;5033760;28;20430;-84
2023/09/16 10:05:50;;;;;;;0.60;0.60;;;22.70;99.90;;;;;;5036054;28;20482;-78
2023/09/16 10:08:18;;;;;;;0.57;0.57;;;22.90;99.90;;;;;;5023858;28;20413;-86
2023/09/16 10:10:47;;;;;;;1.43;1.33;;;23.00;99.60;;;;;;5026117;28;20528;-83
2023/09/16 10:13:16;;;;;;;1.10;1.10;;;22.80;99.70;;;;;;5032831;28;20656;-84
2023/09/16 10:15:43;;;;;;;1.93;1.83;;;22.70;99.90;;;;;;5028424;28;20457;-80
2023/09/16 10:18:10;;;;;;;1.57;1.47;;;22.80;99.90;;;;;;5020693;28;20417;-80
2023/09/16 10:20:43;;;;;;;0.80;0.80;;;22.70;99.90;;;;;;5021651;28;20425;-83
2023/09/16 10:23:11;;;;;;;1.10;1.10;;;22.80;99.90;;;;;;5033032;28;20450;-86
2023/09/16 10:25:38;;;;;;;0.73;0.73;;;22.90;99.90;;;;;;5033458;28;20529;-86
2023/09/16 10:28:09;;;;;;;0.60;0.60;;;23.10;99.90;;;;;;5017333;28;20422;-85
2023/09/16 10:30:37;;;;;;;0.80;0.80;;;23.20;99.50;;;;;;5016775;28;21009;-82
2023/09/16 10:33:08;;;;;;;0.73;0.73;;;23.10;99.50;;;;;;5031425;28;20459;-84
2023/09/16 10:35:42;;;;;;;0.60;0.60;;;23.00;99.90;;;;;;5032268;28;20439;-81
2023/09/16 10:38:11;;;;;;;0.50;0.50;;;23.10;99.90;;;;;;5015871;28;20462;-87
2023/09/16 10:40:39;;;;;;;1.67;1.57;;;23.00;99.80;;;;;;5031403;28;20420;-86
2023/09/16 10:43:07;;;;;;;1.43;1.33;;;23.00;99.90;;;;;;5027305;28;20447;-84
2023/09/16 10:45:34;;;;;;;2.80;1.60;;;23.10;99.90;;;;;;5023167;28;20415;-80
2023/09/16 10:48:01;;;;;;;1.03;1.03;;;23.10;99.90;;;;;;5073127;22;20566;-81
2023/09/16 10:50:35;;;;;;;1.10;1.10;;;23.10;99.90;;;;;;5036411;28;20452;-83
2023/09/16 10:53:20;;;;;;;1.57;1.13;;;23.20;99.90;;;;;;5025734;28;20438;-86
2023/09/16 10:56:13;;;;;;;1.30;1.30;;;23.40;99.60;;;;;;5031812;28;20526;-85
2023/09/16 10:58:44;;;;;;;0.80;0.80;;;23.50;99.40;;;;;;5024232;28;20477;-79
2023/09/16 11:01:24;;;;;;;0.70;0.70;;;23.50;99.40;;;;;;5026550;28;20431;-85
2023/09/16 11:03:55;;;;;;;3.43;2.63;;;23.50;99.30;;;;;;5013441;28;20423;-86
2023/09/16 11:06:22;;;;;;;0.90;0.90;;;23.60;99.10;;;;;;5019179;28;20489;-88
2023/09/16 11:08:50;;;;;;;1.17;1.17;;;23.70;99.50;;;;;;5029516;28;20446;-84
2023/09/16 11:11:20;;;;;;;0.90;0.90;;;23.70;98.80;;;;;;5013256;28;20568;-82
2023/09/16 11:13:48;;;;;;;1.70;1.57;;;23.70;98.70;;;;;;5014543;28;20417;-79
2023/09/16 11:16:16;;;;;;;1.30;1.20;;;23.80;98.80;;;;;;5042385;28;20591;-85
2023/09/16 11:18:48;;;;;;;1.20;1.10;;;23.90;98.30;;;;;;5036832;28;20678;-85
2023/09/16 11:21:17;;;;;;;1.33;1.23;;;24.00;98.70;;;;;;5037395;28;20432;-84
2023/09/16 11:23:46;;;;;;;2.30;1.80;;;24.10;98.50;;;;;;5023296;28;20801;-80
2023/09/16 11:26:18;;;;;;;1.03;1.03;;;24.10;98.20;;;;;;5032620;28;20425;-82
2023/09/16 11:28:45;;;;;;;0.90;0.90;;;24.00;98.60;;;;;;5022014;28;20410;-85
2023/09/16 11:31:12;;;;;;;1.57;1.47;;;24.00;98.70;;;;;;5039078;28;20459;-83
2023/09/16 11:33:39;;;;;;;0.90;0.90;;;23.90;99.40;;;;;;5034752;28;20450;-83
2023/09/16 11:36:17;;;;;;;0.70;0.70;;;24.00;99.10;;;;;;5032866;28;20655;-84
2023/09/16 11:39:05;;;;;;;1.73;1.63;;;24.00;98.90;;;;;;5030002;28;20436;-85
2023/09/16 11:41:33;;;;;;;1.20;1.10;;;24.00;98.80;;;;;;5019444;28;20428;-87
2023/09/16 11:44:00;;;;;;;0.80;0.80;;;24.10;98.90;;;;;;5029134;28;20767;-89
2023/09/16 11:46:29;;;;;;;0.80;0.80;;;24.20;97.90;;;;;;5032797;28;21002;-87
2023/09/16 11:49:00;;;;;;;1.10;1.10;;;24.10;98.50;;;;;;5024674;28;20432;-82
2023/09/16 11:51:27;;;;;;;0.80;0.80;;;24.10;98.30;;;;;;5018857;28;20564;-81
2023/09/16 11:53:54;;;;;;;0.70;0.70;;;24.10;98.40;;;;;;5015318;28;20467;-88
2023/09/16 11:56:26;;;;;;;1.63;1.53;;;24.10;98.70;;;;;;5017738;28;20453;-86
2023/09/16 11:58:54;;;;;;;4.10;2.20;;;24.20;98.30;;;;;;5018090;28;20748;-84
2023/09/16 12:01:33;;;;;;;1.50;1.40;;;24.10;98.70;;;;;;5016231;28;20485;-82
2023/09/16 12:04:04;;;;;;;0.80;0.80;;;24.20;98.30;;;;;;5025403;28;20418;-85
2023/09/16 12:06:34;;;;;;;0.70;0.70;;;24.30;97.50;;;;;;5020603;28;20549;-80
2023/09/16 12:09:04;;;;;;;0.97;0.97;;;24.50;98.00;;;;;;5019149;28;21132;-83
2023/09/16 12:11:32;;;;;;;1.00;1.00;;;24.50;98.10;;;;;;5019487;28;20535;-82
2023/09/16 12:14:02;;;;;;;0.77;0.77;;;24.60;97.70;;;;;;5021290;28;20699;-89
2023/09/16 12:16:30;;;;;;;0.60;0.60;;;24.70;96.60;;;;;;5020283;28;20725;-79
2023/09/16 12:18:57;;;;;;;1.47;1.37;;;24.60;97.20;;;;;;5021668;28;20433;-81
2023/09/16 12:21:23;;;;;;;0.70;0.70;;;24.80;96.80;;;;;;5023995;28;20454;-86
2023/09/16 12:23:51;;;;;;;1.57;1.50;;;24.70;97.10;;;;;;5018172;28;20444;-86
2023/09/16 12:26:19;;;;;;;1.20;1.10;;;24.70;96.30;;;;;;5027147;28;20453;-87
2023/09/16 12:28:46;;;;;;;0.60;0.60;;;24.50;96.30;;;;;;5024215;28;20420;-82
2023/09/16 12:31:20;;;;;;;2.50;2.40;;;24.50;96.80;;;;;;5027960;28;20500;-83
2023/09/16 12:33:54;;;;;;;3.07;2.87;;;24.70;97.40;;;;;;5020047;28;20475;-81
2023/09/16 12:36:28;;;;;;;1.77;1.67;;;24.60;97.10;;;;;;5026496;28;20443;-83
2023/09/16 12:39:00;;;;;;;1.30;1.30;;;24.80;97.30;;;;;;5018839;28;20714;-83
2023/09/16 12:41:28;;;;;;;0.70;0.70;;;24.70;97.60;;;;;;5025935;28;20417;-85
2023/09/16 12:43:58;;;;;;;1.60;1.50;;;24.80;98.00;;;;;;5035956;28;20466;-82
2023/09/16 12:46:27;;;;;;;0.70;0.70;;;24.80;97.30;;;;;;5024519;28;20463;-84
2023/09/16 12:48:56;;;;;;;0.80;0.80;;;24.60;97.50;;;;;;5022371;28;20434;-87
2023/09/16 12:51:28;;;;;;;0.80;0.80;;;24.70;97.80;;;;;;5029231;28;20659;-78
2023/09/16 12:53:55;;;;;;;1.10;1.10;;;24.80;96.90;;;;;;5021993;28;20440;-80
2023/09/16 12:56:23;;;;;;;0.70;0.70;;;24.70;97.40;;;;;;5029413;28;20431;-79